sensor_id;sensor_type;location;lat;lon;timestamp;pressure;altitude;pressure_sealevel;temperature;humidity
56719;BME280;42597;40.636;0.278;2023-02-22T00:00:36;97300.63;;;12.17;79.80
56719;BME280;42597;40.636;0.278;2023-02-22T00:03:18;97299.72;;;12.64;76.03
56719;BME280;42597;40.636;0.278;2023-02-22T00:05:51;97298.75;;;12.92;74.20
56719;BME280;42597;40.636;0.278;2023-02-22T00:08:20;97305.44;;;12.59;75.82
56719;BME280;42597;40.636;0.278;2023-02-22T00:10:46;97299.41;;;12.50;76.49
56719;BME280;42597;40.636;0.278;2023-02-22T00:13:17;97301.09;;;12.54;76.30
56719;BME280;42597;40.636;0.278;2023-02-22T00:15:43;97304.16;;;12.72;74.94
56719;BME280;42597;40.636;0.278;2023-02-22T00:18:11;97305.88;;;13.00;73.65
56719;BME280;42597;40.636;0.278;2023-02-22T00:20:38;97295.59;;;12.90;73.31
56719;BME280;42597;40.636;0.278;2023-02-22T00:23:12;97286.75;;;13.12;72.39
56719;BME280;42597;40.636;0.278;2023-02-22T00:25:38;97283.56;;;13.49;69.94
56719;BME280;42597;40.636;0.278;2023-02-22T00:28:03;97280.19;;;12.94;71.59
56719;BME280;42597;40.636;0.278;2023-02-22T00:30:31;97284.63;;;12.82;72.83
56719;BME280;42597;40.636;0.278;2023-02-22T00:32:58;97279.47;;;12.77;73.04
56719;BME280;42597;40.636;0.278;2023-02-22T00:35:26;97285.47;;;12.67;73.46
56719;BME280;42597;40.636;0.278;2023-02-22T00:37:54;97290.47;;;13.04;71.58
56719;BME280;42597;40.636;0.278;2023-02-22T00:40:23;97288.31;;;12.94;72.06
56719;BME280;42597;40.636;0.278;2023-02-22T00:42:50;97292.19;;;12.93;71.73
56719;BME280;42597;40.636;0.278;2023-02-22T00:45:18;97275.13;;;13.31;70.48
56719;BME280;42597;40.636;0.278;2023-02-22T00:47:44;97276.41;;;13.60;68.75
56719;BME280;42597;40.636;0.278;2023-02-22T00:50:10;97277.47;;;13.78;67.18
56719;BME280;42597;40.636;0.278;2023-02-22T00:52:37;97280.25;;;13.17;69.43
56719;BME280;42597;40.636;0.278;2023-02-22T00:55:07;97275.91;;;12.93;69.77
56719;BME280;42597;40.636;0.278;2023-02-22T00:57:33;97278.16;;;13.49;68.00
56719;BME280;42597;40.636;0.278;2023-02-22T01:00:06;97275.38;;;13.68;66.81
56719;BME280;42597;40.636;0.278;2023-02-22T01:02:39;97276.63;;;13.09;68.97
56719;BME280;42597;40.636;0.278;2023-02-22T01:05:07;97266.75;;;13.20;69.18
56719;BME280;42597;40.636;0.278;2023-02-22T01:07:33;97272.53;;;13.61;66.75
56719;BME280;42597;40.636;0.278;2023-02-22T01:09:59;97266.63;;;13.55;66.67
56719;BME280;42597;40.636;0.278;2023-02-22T01:12:26;97270.16;;;13.17;68.69
56719;BME280;42597;40.636;0.278;2023-02-22T01:14:51;97260.84;;;13.80;65.39
56719;BME280;42597;40.636;0.278;2023-02-22T01:17:22;97271.25;;;13.32;66.39
56719;BME280;42597;40.636;0.278;2023-02-22T01:19:47;97270.06;;;13.75;65.86
56719;BME280;42597;40.636;0.278;2023-02-22T01:22:13;97273.38;;;13.65;66.09
56719;BME280;42597;40.636;0.278;2023-02-22T01:24:38;97264.72;;;13.79;64.83
56719;BME280;42597;40.636;0.278;2023-02-22T01:27:04;97275.75;;;12.85;67.79
56719;BME280;42597;40.636;0.278;2023-02-22T01:29:30;97277.16;;;11.90;74.04
56719;BME280;42597;40.636;0.278;2023-02-22T01:31:56;97274.00;;;11.72;75.54
56719;BME280;42597;40.636;0.278;2023-02-22T01:34:23;97279.59;;;11.95;74.36
56719;BME280;42597;40.636;0.278;2023-02-22T01:36:49;97276.53;;;11.96;74.11
56719;BME280;42597;40.636;0.278;2023-02-22T01:39:15;97278.72;;;12.06;74.41
56719;BME280;42597;40.636;0.278;2023-02-22T01:41:45;97278.72;;;12.06;72.46
56719;BME280;42597;40.636;0.278;2023-02-22T01:46:52;97276.97;;;11.51;76.31
56719;BME280;42597;40.636;0.278;2023-02-22T01:49:17;97278.63;;;11.71;73.55
56719;BME280;42597;40.636;0.278;2023-02-22T01:51:46;97279.34;;;12.00;71.30
56719;BME280;42597;40.636;0.278;2023-02-22T01:56:50;97277.78;;;11.23;74.44
56719;BME280;42597;40.636;0.278;2023-02-22T01:59:20;97276.66;;;11.24;74.78
56719;BME280;42597;40.636;0.278;2023-02-22T02:01:46;97267.00;;;11.55;73.82
56719;BME280;42597;40.636;0.278;2023-02-22T02:04:16;97268.91;;;12.02;72.99
56719;BME280;42597;40.636;0.278;2023-02-22T02:06:44;97267.50;;;12.78;70.10
56719;BME280;42597;40.636;0.278;2023-02-22T02:09:15;97275.31;;;12.45;70.11
56719;BME280;42597;40.636;0.278;2023-02-22T02:11:43;97272.00;;;12.71;69.66
56719;BME280;42597;40.636;0.278;2023-02-22T02:14:10;97270.69;;;11.78;73.04
56719;BME280;42597;40.636;0.278;2023-02-22T02:16:39;97277.66;;;11.79;74.85
56719;BME280;42597;40.636;0.278;2023-02-22T02:19:26;97273.63;;;12.05;73.06
56719;BME280;42597;40.636;0.278;2023-02-22T02:22:19;97282.63;;;11.77;74.01
56719;BME280;42597;40.636;0.278;2023-02-22T02:28:10;97278.69;;;12.96;66.19
56719;BME280;42597;40.636;0.278;2023-02-22T02:33:49;97274.50;;;11.77;72.44
56719;BME280;42597;40.636;0.278;2023-02-22T02:36:19;97276.56;;;11.36;74.34
56719;BME280;42597;40.636;0.278;2023-02-22T02:41:30;97273.13;;;11.52;73.50
56719;BME280;42597;40.636;0.278;2023-02-22T02:44:11;97268.03;;;11.34;74.19
56719;BME280;42597;40.636;0.278;2023-02-22T02:47:02;97270.44;;;11.83;74.12
56719;BME280;42597;40.636;0.278;2023-02-22T02:52:10;97275.66;;;11.92;70.71
56719;BME280;42597;40.636;0.278;2023-02-22T02:54:38;97270.84;;;11.70;71.71
56719;BME280;42597;40.636;0.278;2023-02-22T02:57:04;97269.91;;;11.62;71.69
56719;BME280;42597;40.636;0.278;2023-02-22T02:59:35;97268.91;;;11.39;72.79
56719;BME280;42597;40.636;0.278;2023-02-22T03:02:44;97264.38;;;11.27;74.20
56719;BME280;42597;40.636;0.278;2023-02-22T03:08:12;97258.88;;;13.34;67.90
56719;BME280;42597;40.636;0.278;2023-02-22T03:16:02;97259.13;;;11.18;73.64
56719;BME280;42597;40.636;0.278;2023-02-22T03:26:16;97258.13;;;11.70;71.65
56719;BME280;42597;40.636;0.278;2023-02-22T03:28:50;97258.25;;;12.44;71.09
56719;BME280;42597;40.636;0.278;2023-02-22T03:31:23;97252.34;;;12.03;70.88
56719;BME280;42597;40.636;0.278;2023-02-22T03:33:57;97258.25;;;11.77;70.92
56719;BME280;42597;40.636;0.278;2023-02-22T03:36:32;97254.06;;;11.32;72.70
56719;BME280;42597;40.636;0.278;2023-02-22T03:39:03;97249.47;;;12.31;71.68
56719;BME280;42597;40.636;0.278;2023-02-22T03:41:30;97253.81;;;12.71;69.78
56719;BME280;42597;40.636;0.278;2023-02-22T03:44:04;97254.06;;;12.47;67.45
56719;BME280;42597;40.636;0.278;2023-02-22T03:46:31;97258.28;;;12.83;64.52
56719;BME280;42597;40.636;0.278;2023-02-22T03:51:26;97258.88;;;12.38;67.73
56719;BME280;42597;40.636;0.278;2023-02-22T03:53:52;97252.63;;;13.11;67.12
56719;BME280;42597;40.636;0.278;2023-02-22T03:56:23;97249.44;;;13.48;66.08
56719;BME280;42597;40.636;0.278;2023-02-22T03:58:50;97246.22;;;12.80;66.80
56719;BME280;42597;40.636;0.278;2023-02-22T04:01:16;97245.97;;;11.96;67.38
56719;BME280;42597;40.636;0.278;2023-02-22T04:03:44;97241.69;;;11.95;69.34
56719;BME280;42597;40.636;0.278;2023-02-22T04:06:10;97237.66;;;12.40;68.30
56719;BME280;42597;40.636;0.278;2023-02-22T04:08:36;97227.13;;;13.35;66.43
56719;BME280;42597;40.636;0.278;2023-02-22T04:11:02;97233.03;;;13.41;65.08
56719;BME280;42597;40.636;0.278;2023-02-22T04:13:28;97230.31;;;13.21;64.29
56719;BME280;42597;40.636;0.278;2023-02-22T04:15:54;97238.09;;;12.80;66.99
56719;BME280;42597;40.636;0.278;2023-02-22T04:18:19;97228.91;;;13.73;63.85
56719;BME280;42597;40.636;0.278;2023-02-22T04:20:45;97235.38;;;13.42;64.86
56719;BME280;42597;40.636;0.278;2023-02-22T04:23:11;97225.47;;;13.53;64.17
56719;BME280;42597;40.636;0.278;2023-02-22T04:25:37;97230.91;;;14.29;61.52
56719;BME280;42597;40.636;0.278;2023-02-22T04:28:02;97244.22;;;12.77;65.01
56719;BME280;42597;40.636;0.278;2023-02-22T04:30:28;97238.25;;;11.98;67.16
56719;BME280;42597;40.636;0.278;2023-02-22T04:32:55;97241.25;;;10.85;72.28
56719;BME280;42597;40.636;0.278;2023-02-22T04:35:21;97244.38;;;10.87;72.58
56719;BME280;42597;40.636;0.278;2023-02-22T04:37:47;97250.66;;;10.63;73.85
56719;BME280;42597;40.636;0.278;2023-02-22T04:40:15;97248.06;;;11.71;73.04
56719;BME280;42597;40.636;0.278;2023-02-22T04:42:41;97240.13;;;11.62;69.20
56719;BME280;42597;40.636;0.278;2023-02-22T04:45:07;97256.59;;;10.81;72.70
56719;BME280;42597;40.636;0.278;2023-02-22T04:47:34;97251.53;;;10.40;75.63
56719;BME280;42597;40.636;0.278;2023-02-22T04:50:01;97253.72;;;10.62;74.35
56719;BME280;42597;40.636;0.278;2023-02-22T04:52:27;97247.53;;;10.90;72.39
56719;BME280;42597;40.636;0.278;2023-02-22T04:54:53;97250.25;;;11.05;72.06
56719;BME280;42597;40.636;0.278;2023-02-22T04:57:18;97256.53;;;11.09;71.88
56719;BME280;42597;40.636;0.278;2023-02-22T04:59:44;97250.84;;;11.27;71.06
56719;BME280;42597;40.636;0.278;2023-02-22T05:02:09;97253.16;;;10.56;74.63
56719;BME280;42597;40.636;0.278;2023-02-22T05:04:37;97246.34;;;10.75;73.18
56719;BME280;42597;40.636;0.278;2023-02-22T05:07:02;97248.13;;;10.55;74.37
56719;BME280;42597;40.636;0.278;2023-02-22T05:09:28;97247.97;;;11.67;74.05
56719;BME280;42597;40.636;0.278;2023-02-22T05:11:54;97244.16;;;12.74;69.02
56719;BME280;42597;40.636;0.278;2023-02-22T05:14:20;97248.50;;;12.98;65.28
56719;BME280;42597;40.636;0.278;2023-02-22T05:16:47;97245.94;;;12.66;66.26
56719;BME280;42597;40.636;0.278;2023-02-22T05:19:14;97261.78;;;12.64;65.19
56719;BME280;42597;40.636;0.278;2023-02-22T05:21:40;97259.22;;;12.01;67.31
56719;BME280;42597;40.636;0.278;2023-02-22T05:24:06;97262.69;;;11.22;71.50
56719;BME280;42597;40.636;0.278;2023-02-22T05:26:32;97257.78;;;12.39;69.89
56719;BME280;42597;40.636;0.278;2023-02-22T05:28:57;97260.16;;;12.24;67.04
56719;BME280;42597;40.636;0.278;2023-02-22T05:31:23;97258.59;;;12.23;68.88
56719;BME280;42597;40.636;0.278;2023-02-22T05:33:49;97254.84;;;11.49;68.53
56719;BME280;42597;40.636;0.278;2023-02-22T05:36:14;97252.09;;;11.01;70.61
56719;BME280;42597;40.636;0.278;2023-02-22T05:38:41;97258.72;;;11.04;71.53
56719;BME280;42597;40.636;0.278;2023-02-22T05:41:10;97253.91;;;11.41;70.95
56719;BME280;42597;40.636;0.278;2023-02-22T05:43:37;97260.81;;;10.95;71.39
56719;BME280;42597;40.636;0.278;2023-02-22T05:46:03;97251.34;;;10.88;71.75
56719;BME280;42597;40.636;0.278;2023-02-22T05:48:29;97264.88;;;10.88;72.10
56719;BME280;42597;40.636;0.278;2023-02-22T05:50:55;97256.84;;;11.20;71.96
56719;BME280;42597;40.636;0.278;2023-02-22T05:53:21;97263.06;;;11.68;72.00
56719;BME280;42597;40.636;0.278;2023-02-22T05:55:49;97263.84;;;12.90;67.81
56719;BME280;42597;40.636;0.278;2023-02-22T05:58:14;97260.31;;;13.48;65.73
56719;BME280;42597;40.636;0.278;2023-02-22T06:00:40;97253.31;;;13.47;64.93
56719;BME280;42597;40.636;0.278;2023-02-22T06:03:08;97257.56;;;13.71;63.40
56719;BME280;42597;40.636;0.278;2023-02-22T06:05:35;97255.41;;;13.80;63.02
56719;BME280;42597;40.636;0.278;2023-02-22T06:08:02;97254.94;;;13.51;64.89
56719;BME280;42597;40.636;0.278;2023-02-22T06:10:29;97267.06;;;11.27;67.91
56719;BME280;42597;40.636;0.278;2023-02-22T06:12:55;97264.78;;;11.29;69.33
56719;BME280;42597;40.636;0.278;2023-02-22T06:15:23;97268.50;;;11.08;70.20
56719;BME280;42597;40.636;0.278;2023-02-22T06:17:49;97270.41;;;11.08;70.67
56719;BME280;42597;40.636;0.278;2023-02-22T06:20:18;97268.56;;;10.68;73.14
56719;BME280;42597;40.636;0.278;2023-02-22T06:22:46;97266.91;;;12.89;69.98
56719;BME280;42597;40.636;0.278;2023-02-22T06:25:14;97276.59;;;11.68;68.35
56719;BME280;42597;40.636;0.278;2023-02-22T06:27:41;97269.19;;;10.49;73.82
56719;BME280;42597;40.636;0.278;2023-02-22T06:30:09;97274.72;;;10.28;75.75
56719;BME280;42597;40.636;0.278;2023-02-22T06:32:36;97272.47;;;10.18;76.64
56719;BME280;42597;40.636;0.278;2023-02-22T06:35:02;97283.72;;;10.20;76.99
56719;BME280;42597;40.636;0.278;2023-02-22T06:37:29;97279.44;;;10.19;77.42
56719;BME280;42597;40.636;0.278;2023-02-22T06:39:54;97275.84;;;10.15;77.97
56719;BME280;42597;40.636;0.278;2023-02-22T06:42:20;97284.06;;;10.19;78.14
56719;BME280;42597;40.636;0.278;2023-02-22T06:44:46;97269.97;;;12.13;75.09
56719;BME280;42597;40.636;0.278;2023-02-22T06:47:11;97275.47;;;11.69;70.66
56719;BME280;42597;40.636;0.278;2023-02-22T06:49:37;97284.38;;;10.54;76.41
56719;BME280;42597;40.636;0.278;2023-02-22T06:52:04;97283.03;;;10.11;78.65
56719;BME280;42597;40.636;0.278;2023-02-22T06:54:30;97270.56;;;10.31;78.17
56719;BME280;42597;40.636;0.278;2023-02-22T06:56:56;97276.47;;;10.49;76.44
56719;BME280;42597;40.636;0.278;2023-02-22T06:59:22;97278.09;;;10.37;76.76
56719;BME280;42597;40.636;0.278;2023-02-22T07:01:48;97286.75;;;12.03;73.62
56719;BME280;42597;40.636;0.278;2023-02-22T07:04:14;97296.47;;;11.00;73.19
56719;BME280;42597;40.636;0.278;2023-02-22T07:06:45;97292.94;;;10.07;77.48
56719;BME280;42597;40.636;0.278;2023-02-22T07:09:11;97301.03;;;9.70;79.45
56719;BME280;42597;40.636;0.278;2023-02-22T07:11:38;97304.75;;;9.90;82.57
56719;BME280;42597;40.636;0.278;2023-02-22T07:14:04;97310.47;;;10.01;86.03
56719;BME280;42597;40.636;0.278;2023-02-22T07:16:30;97314.53;;;10.07;87.28
56719;BME280;42597;40.636;0.278;2023-02-22T07:18:55;97307.13;;;9.92;86.72
56719;BME280;42597;40.636;0.278;2023-02-22T07:21:21;97312.09;;;10.38;86.33
56719;BME280;42597;40.636;0.278;2023-02-22T07:23:51;97308.91;;;10.24;89.02
56719;BME280;42597;40.636;0.278;2023-02-22T07:26:17;97313.88;;;9.98;89.22
56719;BME280;42597;40.636;0.278;2023-02-22T07:28:43;97315.69;;;9.94;90.17
56719;BME280;42597;40.636;0.278;2023-02-22T07:31:08;97318.69;;;9.92;90.36
56719;BME280;42597;40.636;0.278;2023-02-22T07:33:34;97323.31;;;10.16;88.64
56719;BME280;42597;40.636;0.278;2023-02-22T07:36:00;97326.47;;;10.06;90.99
56719;BME280;42597;40.636;0.278;2023-02-22T07:38:26;97330.06;;;10.47;87.97
56719;BME280;42597;40.636;0.278;2023-02-22T07:40:53;97324.91;;;11.22;80.79
56719;BME280;42597;40.636;0.278;2023-02-22T07:43:20;97328.59;;;10.00;88.81
56719;BME280;42597;40.636;0.278;2023-02-22T07:45:47;97322.75;;;9.98;92.06
56719;BME280;42597;40.636;0.278;2023-02-22T07:48:14;97338.28;;;9.89;95.05
56719;BME280;42597;40.636;0.278;2023-02-22T07:50:41;97335.19;;;9.66;98.68
56719;BME280;42597;40.636;0.278;2023-02-22T07:53:12;97344.19;;;9.70;100.00
56719;BME280;42597;40.636;0.278;2023-02-22T07:55:38;97349.13;;;9.68;100.00
56719;BME280;42597;40.636;0.278;2023-02-22T07:58:06;97346.91;;;9.70;100.00
56719;BME280;42597;40.636;0.278;2023-02-22T08:00:35;97356.09;;;9.57;100.00
56719;BME280;42597;40.636;0.278;2023-02-22T08:03:02;97355.59;;;9.43;100.00
56719;BME280;42597;40.636;0.278;2023-02-22T08:05:29;97359.56;;;9.24;100.00
56719;BME280;42597;40.636;0.278;2023-02-22T08:07:56;97357.16;;;9.44;100.00
56719;BME280;42597;40.636;0.278;2023-02-22T08:10:23;97359.91;;;9.56;100.00
56719;BME280;42597;40.636;0.278;2023-02-22T08:12:50;97364.81;;;9.42;100.00
56719;BME280;42597;40.636;0.278;2023-02-22T08:15:29;97364.13;;;9.45;100.00
56719;BME280;42597;40.636;0.278;2023-02-22T08:17:56;97369.72;;;9.73;100.00
56719;BME280;42597;40.636;0.278;2023-02-22T08:20:23;97369.59;;;9.57;100.00
56719;BME280;42597;40.636;0.278;2023-02-22T08:22:49;97375.53;;;9.62;100.00
56719;BME280;42597;40.636;0.278;2023-02-22T08:25:16;97375.16;;;9.52;100.00
56719;BME280;42597;40.636;0.278;2023-02-22T08:27:42;97371.25;;;9.49;100.00
56719;BME280;42597;40.636;0.278;2023-02-22T08:30:16;97381.34;;;9.52;100.00
56719;BME280;42597;40.636;0.278;2023-02-22T08:32:45;97376.56;;;9.70;100.00
56719;BME280;42597;40.636;0.278;2023-02-22T08:35:11;97376.63;;;9.95;100.00
56719;BME280;42597;40.636;0.278;2023-02-22T08:37:44;97382.47;;;10.09;100.00
56719;BME280;42597;40.636;0.278;2023-02-22T08:40:11;97376.25;;;10.29;100.00
56719;BME280;42597;40.636;0.278;2023-02-22T08:42:37;97379.91;;;10.25;100.00
56719;BME280;42597;40.636;0.278;2023-02-22T08:45:03;97378.94;;;10.42;100.00
56719;BME280;42597;40.636;0.278;2023-02-22T08:47:29;97380.03;;;10.53;100.00
56719;BME280;42597;40.636;0.278;2023-02-22T08:49:55;97385.22;;;10.46;100.00
56719;BME280;42597;40.636;0.278;2023-02-22T08:52:20;97376.78;;;10.47;100.00
56719;BME280;42597;40.636;0.278;2023-02-22T08:54:46;97376.56;;;10.40;100.00
56719;BME280;42597;40.636;0.278;2023-02-22T08:57:13;97373.75;;;10.36;100.00
56719;BME280;42597;40.636;0.278;2023-02-22T08:59:39;97381.53;;;10.38;100.00
56719;BME280;42597;40.636;0.278;2023-02-22T09:02:05;97372.84;;;10.45;100.00
56719;BME280;42597;40.636;0.278;2023-02-22T09:04:30;97363.63;;;10.46;100.00
56719;BME280;42597;40.636;0.278;2023-02-22T09:06:56;97373.50;;;10.17;100.00
56719;BME280;42597;40.636;0.278;2023-02-22T09:09:22;97368.31;;;10.24;100.00
56719;BME280;42597;40.636;0.278;2023-02-22T09:11:47;97371.16;;;10.28;100.00
56719;BME280;42597;40.636;0.278;2023-02-22T09:14:13;97373.03;;;10.15;100.00
56719;BME280;42597;40.636;0.278;2023-02-22T09:16:42;97371.22;;;10.68;100.00
56719;BME280;42597;40.636;0.278;2023-02-22T09:19:08;97360.19;;;10.85;100.00
56719;BME280;42597;40.636;0.278;2023-02-22T09:21:33;97360.06;;;10.82;100.00
56719;BME280;42597;40.636;0.278;2023-02-22T09:23:59;97360.50;;;10.84;100.00
56719;BME280;42597;40.636;0.278;2023-02-22T09:26:36;97362.53;;;10.87;100.00
56719;BME280;42597;40.636;0.278;2023-02-22T09:29:07;97363.03;;;11.05;100.00
56719;BME280;42597;40.636;0.278;2023-02-22T09:31:37;97362.34;;;11.08;100.00
56719;BME280;42597;40.636;0.278;2023-02-22T09:34:07;97357.63;;;11.05;100.00
56719;BME280;42597;40.636;0.278;2023-02-22T09:36:42;97369.34;;;11.09;100.00
56719;BME280;42597;40.636;0.278;2023-02-22T09:39:10;97368.53;;;11.08;100.00
56719;BME280;42597;40.636;0.278;2023-02-22T09:47:21;97368.41;;;11.45;100.00
56719;BME280;42597;40.636;0.278;2023-02-22T09:50:04;97362.34;;;11.64;100.00
56719;BME280;42597;40.636;0.278;2023-02-22T09:52:53;97365.38;;;11.47;100.00
56719;BME280;42597;40.636;0.278;2023-02-22T09:55:30;97355.25;;;11.59;100.00
56719;BME280;42597;40.636;0.278;2023-02-22T09:58:01;97364.63;;;11.62;100.00
56719;BME280;42597;40.636;0.278;2023-02-22T10:00:29;97354.31;;;11.68;100.00
56719;BME280;42597;40.636;0.278;2023-02-22T10:03:19;97364.09;;;11.72;100.00
56719;BME280;42597;40.636;0.278;2023-02-22T10:05:59;97365.75;;;11.77;100.00
56719;BME280;42597;40.636;0.278;2023-02-22T10:08:31;97359.44;;;12.01;100.00
56719;BME280;42597;40.636;0.278;2023-02-22T10:24:33;97358.47;;;12.09;97.41
56719;BME280;42597;40.636;0.278;2023-02-22T10:27:06;97357.00;;;12.12;98.20
56719;BME280;42597;40.636;0.278;2023-02-22T10:29:39;97352.94;;;12.21;97.93
56719;BME280;42597;40.636;0.278;2023-02-22T10:32:13;97355.56;;;12.33;97.46
56719;BME280;42597;40.636;0.278;2023-02-22T10:34:44;97356.97;;;12.27;99.14
56719;BME280;42597;40.636;0.278;2023-02-22T10:37:19;97354.69;;;12.29;99.32
56719;BME280;42597;40.636;0.278;2023-02-22T10:39:47;97352.31;;;12.44;99.28
56719;BME280;42597;40.636;0.278;2023-02-22T10:42:14;97352.59;;;12.39;97.74
56719;BME280;42597;40.636;0.278;2023-02-22T10:44:40;97347.41;;;12.49;96.83
56719;BME280;42597;40.636;0.278;2023-02-22T10:47:09;97346.09;;;12.59;93.93
56719;BME280;42597;40.636;0.278;2023-02-22T10:49:40;97356.22;;;12.62;91.97
56719;BME280;42597;40.636;0.278;2023-02-22T10:54:45;97347.97;;;12.74;93.82
56719;BME280;42597;40.636;0.278;2023-02-22T10:57:13;97351.97;;;12.80;92.90
56719;BME280;42597;40.636;0.278;2023-02-22T10:59:43;97357.72;;;12.95;92.58
56719;BME280;42597;40.636;0.278;2023-02-22T11:02:20;97346.41;;;12.93;92.26
56719;BME280;42597;40.636;0.278;2023-02-22T11:04:51;97344.16;;;12.95;93.12
56719;BME280;42597;40.636;0.278;2023-02-22T11:07:21;97343.16;;;13.03;91.21
56719;BME280;42597;40.636;0.278;2023-02-22T11:09:59;97338.28;;;12.93;88.72
56719;BME280;42597;40.636;0.278;2023-02-22T11:12:34;97339.91;;;12.97;86.03
56719;BME280;42597;40.636;0.278;2023-02-22T11:17:49;97329.03;;;13.32;85.22
56719;BME280;42597;40.636;0.278;2023-02-22T11:20:31;97329.53;;;13.19;86.22
56719;BME280;42597;40.636;0.278;2023-02-22T11:23:01;97329.00;;;13.13;86.33
56719;BME280;42597;40.636;0.278;2023-02-22T11:25:32;97334.31;;;13.25;86.04
56719;BME280;42597;40.636;0.278;2023-02-22T11:28:10;97335.94;;;13.30;84.42
56719;BME280;42597;40.636;0.278;2023-02-22T11:30:40;97328.09;;;13.25;83.88
56719;BME280;42597;40.636;0.278;2023-02-22T11:36:00;97319.44;;;13.39;84.94
56719;BME280;42597;40.636;0.278;2023-02-22T11:38:31;97319.94;;;13.44;86.72
56719;BME280;42597;40.636;0.278;2023-02-22T11:43:32;97300.22;;;13.70;85.52
56719;BME280;42597;40.636;0.278;2023-02-22T11:48:35;97308.75;;;13.69;85.55
56719;BME280;42597;40.636;0.278;2023-02-22T11:56:38;97300.47;;;13.85;80.71
56719;BME280;42597;40.636;0.278;2023-02-22T11:59:37;97289.53;;;14.04;78.40
56719;BME280;42597;40.636;0.278;2023-02-22T12:19:50;97269.00;;;14.06;77.80
56719;BME280;42597;40.636;0.278;2023-02-22T12:22:40;97254.97;;;14.27;77.20
56719;BME280;42597;40.636;0.278;2023-02-22T12:25:27;97252.75;;;14.10;77.05
56719;BME280;42597;40.636;0.278;2023-02-22T12:28:24;97255.41;;;14.33;77.00
56719;BME280;42597;40.636;0.278;2023-02-22T12:31:18;97253.41;;;14.30;77.20
56719;BME280;42597;40.636;0.278;2023-02-22T12:34:25;97252.25;;;14.31;76.55
56719;BME280;42597;40.636;0.278;2023-02-22T12:37:05;97252.38;;;14.38;76.22
56719;BME280;42597;40.636;0.278;2023-02-22T12:42:17;97247.72;;;14.39;75.83
56719;BME280;42597;40.636;0.278;2023-02-22T12:44:52;97246.19;;;14.41;76.21
56719;BME280;42597;40.636;0.278;2023-02-22T12:47:22;97240.81;;;14.45;76.52
56719;BME280;42597;40.636;0.278;2023-02-22T12:50:03;97236.41;;;14.63;76.05
56719;BME280;42597;40.636;0.278;2023-02-22T12:52:52;97231.69;;;14.56;76.04
56719;BME280;42597;40.636;0.278;2023-02-22T13:00:42;97228.56;;;14.58;75.44
56719;BME280;42597;40.636;0.278;2023-02-22T13:05:51;97200.31;;;14.66;74.49
56719;BME280;42597;40.636;0.278;2023-02-22T13:08:36;97200.50;;;14.80;74.35
56719;BME280;42597;40.636;0.278;2023-02-22T13:13:55;97205.19;;;14.84;74.49
56719;BME280;42597;40.636;0.278;2023-02-22T13:22:13;97196.41;;;14.97;75.37
56719;BME280;42597;40.636;0.278;2023-02-22T13:27:51;97194.84;;;14.96;74.10
56719;BME280;42597;40.636;0.278;2023-02-22T13:30:25;97199.47;;;14.92;74.61
56719;BME280;42597;40.636;0.278;2023-02-22T14:46:55;97171.19;;;14.67;88.38
56719;BME280;42597;40.636;0.278;2023-02-22T14:49:29;97165.53;;;14.82;88.04
56719;BME280;42597;40.636;0.278;2023-02-22T14:51:59;97169.66;;;14.69;88.19
56719;BME280;42597;40.636;0.278;2023-02-22T14:54:45;97167.50;;;14.86;87.55
56719;BME280;42597;40.636;0.278;2023-02-22T14:57:29;97164.41;;;15.24;75.80
56719;BME280;42597;40.636;0.278;2023-02-22T15:00:14;97164.69;;;15.12;84.34
56719;BME280;42597;40.636;0.278;2023-02-22T15:02:48;97170.94;;;15.16;84.55
56719;BME280;42597;40.636;0.278;2023-02-22T15:05:17;97165.38;;;15.05;85.67
56719;BME280;42597;40.636;0.278;2023-02-22T15:08:07;97171.41;;;14.85;87.88
56719;BME280;42597;40.636;0.278;2023-02-22T15:10:45;97162.97;;;14.97;87.06
56719;BME280;42597;40.636;0.278;2023-02-22T15:15:53;97162.50;;;14.88;88.17
56719;BME280;42597;40.636;0.278;2023-02-22T15:18:48;97162.88;;;14.90;88.00
56719;BME280;42597;40.636;0.278;2023-02-22T15:21:20;97162.06;;;14.86;88.63
56719;BME280;42597;40.636;0.278;2023-02-22T15:23:54;97155.16;;;14.92;88.26
56719;BME280;42597;40.636;0.278;2023-02-22T15:26:28;97148.00;;;14.76;89.50
56719;BME280;42597;40.636;0.278;2023-02-22T15:28:57;97157.75;;;14.81;89.09
56719;BME280;42597;40.636;0.278;2023-02-22T15:33:55;97148.34;;;15.12;86.40
56719;BME280;42597;40.636;0.278;2023-02-22T15:36:27;97155.28;;;15.06;87.36
56719;BME280;42597;40.636;0.278;2023-02-22T15:38:55;97153.56;;;14.91;87.93
56719;BME280;42597;40.636;0.278;2023-02-22T15:41:30;97151.09;;;14.78;88.99
56719;BME280;42597;40.636;0.278;2023-02-22T15:43:58;97154.59;;;15.16;79.93
56719;BME280;42597;40.636;0.278;2023-02-22T15:46:24;97153.84;;;15.19;84.85
56719;BME280;42597;40.636;0.278;2023-02-22T15:51:37;97152.75;;;14.87;88.32
56719;BME280;42597;40.636;0.278;2023-02-22T15:54:05;97157.59;;;15.04;88.10
56719;BME280;42597;40.636;0.278;2023-02-22T15:56:34;97150.78;;;15.24;84.41
56719;BME280;42597;40.636;0.278;2023-02-22T15:59:11;97155.47;;;15.27;85.63
56719;BME280;42597;40.636;0.278;2023-02-22T16:01:41;97145.34;;;15.24;86.28
56719;BME280;42597;40.636;0.278;2023-02-22T16:04:19;97149.88;;;15.10;87.22
56719;BME280;42597;40.636;0.278;2023-02-22T16:06:46;97143.50;;;14.95;88.92
56719;BME280;42597;40.636;0.278;2023-02-22T16:09:19;97149.72;;;14.92;89.45
56719;BME280;42597;40.636;0.278;2023-02-22T16:11:49;97145.47;;;14.98;89.53
56719;BME280;42597;40.636;0.278;2023-02-22T16:19:51;97142.94;;;14.78;90.63
56719;BME280;42597;40.636;0.278;2023-02-22T16:22:27;97136.28;;;14.72;91.00
56719;BME280;42597;40.636;0.278;2023-02-22T16:24:55;97130.69;;;14.58;91.82
56719;BME280;42597;40.636;0.278;2023-02-22T16:27:42;97131.84;;;14.57;91.79
56719;BME280;42597;40.636;0.278;2023-02-22T16:32:49;97134.59;;;14.98;88.81
56719;BME280;42597;40.636;0.278;2023-02-22T16:35:16;97135.28;;;14.50;92.00
56719;BME280;42597;40.636;0.278;2023-02-22T16:40:20;97150.16;;;14.60;91.12